sensor_id;sensor_type;location;lat;lon;timestamp;pressure;altitude;pressure_sealevel;temperature;humidity
57248;BME280;55809;46.618;10.764;2023-02-28T00:00:03;92959.78;;;2.11;53.65
57248;BME280;55809;46.618;10.764;2023-02-28T00:02:35;93016.19;;;2.49;53.65
57248;BME280;55809;46.618;10.764;2023-02-28T00:05:02;92983.75;;;2.27;53.79
57248;BME280;55809;46.618;10.764;2023-02-28T00:07:30;93021.94;;;2.51;54.12
57248;BME280;55809;46.618;10.764;2023-02-28T00:09:57;93029.88;;;2.47;54.74
57248;BME280;55809;46.618;10.764;2023-02-28T00:12:24;92971.09;;;2.08;54.19
57248;BME280;55809;46.618;10.764;2023-02-28T00:14:52;92986.31;;;2.08;54.65
57248;BME280;55809;46.618;10.764;2023-02-28T00:17:20;92972.13;;;2.04;54.54
57248;BME280;55809;46.618;10.764;2023-02-28T00:19:47;93034.31;;;2.43;54.41
57248;BME280;55809;46.618;10.764;2023-02-28T00:22:15;93032.25;;;2.37;54.71
57248;BME280;55809;46.618;10.764;2023-02-28T00:24:42;93036.81;;;2.36;54.55
57248;BME280;55809;46.618;10.764;2023-02-28T00:27:10;93040.31;;;2.40;54.44
57248;BME280;55809;46.618;10.764;2023-02-28T00:29:38;92951.34;;;1.78;54.65
57248;BME280;55809;46.618;10.764;2023-02-28T00:32:06;93040.31;;;2.40;54.87
57248;BME280;55809;46.618;10.764;2023-02-28T00:34:34;93046.44;;;2.41;54.69
57248;BME280;55809;46.618;10.764;2023-02-28T00:37:04;93048.75;;;2.42;54.29
57248;BME280;55809;46.618;10.764;2023-02-28T00:39:33;93045.66;;;2.40;54.77
57248;BME280;55809;46.618;10.764;2023-02-28T00:42:01;92970.66;;;1.91;54.73
57248;BME280;55809;46.618;10.764;2023-02-28T00:47:34;93020.06;;;2.20;54.58
57248;BME280;55809;46.618;10.764;2023-02-28T00:50:04;93043.34;;;2.39;54.77
57248;BME280;55809;46.618;10.764;2023-02-28T00:52:33;93051.34;;;2.39;55.08
57248;BME280;55809;46.618;10.764;2023-02-28T00:55:01;92995.66;;;2.02;55.13
57248;BME280;55809;46.618;10.764;2023-02-28T00:57:28;93006.63;;;2.00;55.18
57248;BME280;55809;46.618;10.764;2023-02-28T00:59:55;92998.25;;;1.98;54.96
57248;BME280;55809;46.618;10.764;2023-02-28T01:02:22;93026.31;;;2.11;55.01
57248;BME280;55809;46.618;10.764;2023-02-28T01:04:49;93000.03;;;1.94;55.11
57248;BME280;55809;46.618;10.764;2023-02-28T01:07:18;92982.88;;;1.92;55.21
57248;BME280;55809;46.618;10.764;2023-02-28T01:09:45;93032.06;;;2.14;55.20
57248;BME280;55809;46.618;10.764;2023-02-28T01:12:12;93012.75;;;2.01;54.82
57248;BME280;55809;46.618;10.764;2023-02-28T01:14:39;93078.06;;;2.42;54.93
57248;BME280;55809;46.618;10.764;2023-02-28T01:17:06;92958.28;;;1.67;54.97
57248;BME280;55809;46.618;10.764;2023-02-28T01:19:34;93069.31;;;2.42;54.98
57248;BME280;55809;46.618;10.764;2023-02-28T01:22:01;93051.09;;;2.28;54.97
57248;BME280;55809;46.618;10.764;2023-02-28T01:24:31;93073.19;;;2.44;55.06
57248;BME280;55809;46.618;10.764;2023-02-28T01:26:58;93021.69;;;2.08;55.09
57248;BME280;55809;46.618;10.764;2023-02-28T01:29:25;93021.00;;;2.11;55.34
57248;BME280;55809;46.618;10.764;2023-02-28T01:31:52;93028.72;;;2.17;55.35
57248;BME280;55809;46.618;10.764;2023-02-28T01:34:19;93070.16;;;2.46;55.29
57248;BME280;55809;46.618;10.764;2023-02-28T01:36:46;93073.50;;;2.43;55.30
57248;BME280;55809;46.618;10.764;2023-02-28T01:39:13;93021.16;;;2.03;55.17
57248;BME280;55809;46.618;10.764;2023-02-28T01:41:42;93003.72;;;1.90;55.57
57248;BME280;55809;46.618;10.764;2023-02-28T01:47:09;93072.56;;;2.35;56.52
57248;BME280;55809;46.618;10.764;2023-02-28T01:49:37;93015.56;;;1.92;57.54
57248;BME280;55809;46.618;10.764;2023-02-28T01:52:04;93080.69;;;2.26;57.62
57248;BME280;55809;46.618;10.764;2023-02-28T01:54:41;93042.13;;;2.04;57.66
57248;BME280;55809;46.618;10.764;2023-02-28T02:00:22;93072.63;;;2.23;56.60
57248;BME280;55809;46.618;10.764;2023-02-28T02:02:57;93080.63;;;2.23;56.99
57248;BME280;55809;46.618;10.764;2023-02-28T02:05:44;93077.88;;;2.19;57.09
57248;BME280;55809;46.618;10.764;2023-02-28T02:08:31;93064.81;;;2.14;57.02
57248;BME280;55809;46.618;10.764;2023-02-28T02:11:55;93080.28;;;2.24;56.72
57248;BME280;55809;46.618;10.764;2023-02-28T02:14:51;93074.59;;;2.26;56.69
57248;BME280;55809;46.618;10.764;2023-02-28T02:17:42;93080.38;;;2.28;56.43
57248;BME280;55809;46.618;10.764;2023-02-28T02:20:47;93083.81;;;2.28;56.49
57248;BME280;55809;46.618;10.764;2023-02-28T02:27:12;93081.91;;;2.29;56.69
57248;BME280;55809;46.618;10.764;2023-02-28T02:36:21;93076.94;;;2.27;56.98
57248;BME280;55809;46.618;10.764;2023-02-28T02:39:03;93086.47;;;2.28;57.12
57248;BME280;55809;46.618;10.764;2023-02-28T02:41:54;93031.09;;;1.90;57.24
57248;BME280;55809;46.618;10.764;2023-02-28T02:44:45;93093.69;;;2.28;57.41
57248;BME280;55809;46.618;10.764;2023-02-28T02:47:26;93086.13;;;2.30;57.36
57248;BME280;55809;46.618;10.764;2023-02-28T02:50:14;93085.03;;;2.31;57.56
57248;BME280;55809;46.618;10.764;2023-02-28T02:53:05;93071.41;;;2.20;57.73
57248;BME280;55809;46.618;10.764;2023-02-28T02:55:59;93075.13;;;2.31;57.70
57248;BME280;55809;46.618;10.764;2023-02-28T02:58:33;93084.25;;;2.30;58.38
57248;BME280;55809;46.618;10.764;2023-02-28T03:01:27;93067.88;;;2.16;58.38
57248;BME280;55809;46.618;10.764;2023-02-28T03:04:00;93085.63;;;2.24;58.58
57248;BME280;55809;46.618;10.764;2023-02-28T03:07:39;93091.44;;;2.14;58.49
57248;BME280;55809;46.618;10.764;2023-02-28T03:10:37;93094.19;;;2.18;58.43
57248;BME280;55809;46.618;10.764;2023-02-28T03:13:41;93071.91;;;2.10;57.91
57248;BME280;55809;46.618;10.764;2023-02-28T03:16:37;93089.47;;;2.11;58.21
57248;BME280;55809;46.618;10.764;2023-02-28T03:19:38;93035.28;;;1.75;58.11
57248;BME280;55809;46.618;10.764;2023-02-28T03:22:34;93087.38;;;2.04;58.14
57248;BME280;55809;46.618;10.764;2023-02-28T03:25:36;93093.28;;;1.98;57.95
57248;BME280;55809;46.618;10.764;2023-02-28T03:28:27;93086.22;;;1.90;58.02
57248;BME280;55809;46.618;10.764;2023-02-28T03:31:13;93094.66;;;1.92;58.32
57248;BME280;55809;46.618;10.764;2023-02-28T03:33:49;93090.50;;;1.78;58.22
57248;BME280;55809;46.618;10.764;2023-02-28T03:36:51;93107.13;;;2.03;57.54
57248;BME280;55809;46.618;10.764;2023-02-28T03:39:28;93102.72;;;1.95;57.39
57248;BME280;55809;46.618;10.764;2023-02-28T03:42:37;93103.72;;;1.91;57.87
57248;BME280;55809;46.618;10.764;2023-02-28T03:45:35;93110.66;;;1.79;59.09
57248;BME280;55809;46.618;10.764;2023-02-28T03:48:36;93108.28;;;1.62;59.17
57248;BME280;55809;46.618;10.764;2023-02-28T03:51:29;93111.72;;;1.62;58.97
57248;BME280;55809;46.618;10.764;2023-02-28T03:54:07;93114.47;;;1.66;58.74
57248;BME280;55809;46.618;10.764;2023-02-28T03:56:56;93112.25;;;1.68;58.44
57248;BME280;55809;46.618;10.764;2023-02-28T03:59:52;93113.03;;;1.69;58.11
57248;BME280;55809;46.618;10.764;2023-02-28T04:02:39;93110.69;;;1.67;58.21
57248;BME280;55809;46.618;10.764;2023-02-28T04:05:28;93111.03;;;1.66;58.47
57248;BME280;55809;46.618;10.764;2023-02-28T04:08:11;93109.47;;;1.64;58.31
57248;BME280;55809;46.618;10.764;2023-02-28T04:10:55;93114.47;;;1.66;58.41
57248;BME280;55809;46.618;10.764;2023-02-28T04:13:32;93120.47;;;1.63;58.53
57248;BME280;55809;46.618;10.764;2023-02-28T04:19:35;93121.09;;;1.72;58.03
57248;BME280;55809;46.618;10.764;2023-02-28T04:22:21;93119.91;;;1.57;58.41
57248;BME280;55809;46.618;10.764;2023-02-28T04:24:59;93131.56;;;1.53;58.76
57248;BME280;55809;46.618;10.764;2023-02-28T04:27:34;93129.28;;;1.39;59.24
57248;BME280;55809;46.618;10.764;2023-02-28T04:30:05;93139.94;;;1.27;59.70
57248;BME280;55809;46.618;10.764;2023-02-28T04:32:37;93114.25;;;1.19;59.32
57248;BME280;55809;46.618;10.764;2023-02-28T04:38:38;93141.00;;;1.50;59.57
57248;BME280;55809;46.618;10.764;2023-02-28T04:41:08;93142.88;;;1.50;59.73
57248;BME280;55809;46.618;10.764;2023-02-28T04:44:12;93150.19;;;1.53;59.50
57248;BME280;55809;46.618;10.764;2023-02-28T04:46:57;93154.44;;;1.42;59.83
57248;BME280;55809;46.618;10.764;2023-02-28T04:50:06;93147.44;;;1.37;59.88
57248;BME280;55809;46.618;10.764;2023-02-28T04:53:04;93162.22;;;1.22;60.51
57248;BME280;55809;46.618;10.764;2023-02-28T04:55:47;93163.66;;;1.20;60.99
57248;BME280;55809;46.618;10.764;2023-02-28T04:58:24;93170.28;;;1.26;61.18
57248;BME280;55809;46.618;10.764;2023-02-28T05:01:03;93137.16;;;1.11;60.50
57248;BME280;55809;46.618;10.764;2023-02-28T05:03:40;93173.81;;;1.42;60.02
57248;BME280;55809;46.618;10.764;2023-02-28T05:06:25;93165.50;;;1.44;59.29
57248;BME280;55809;46.618;10.764;2023-02-28T05:08:55;93172.13;;;1.50;58.98
57248;BME280;55809;46.618;10.764;2023-02-28T05:11:39;93177.13;;;1.51;58.82
57248;BME280;55809;46.618;10.764;2023-02-28T05:14:09;93188.00;;;1.58;58.91
57248;BME280;55809;46.618;10.764;2023-02-28T05:16:59;93185.75;;;1.60;58.81
57248;BME280;55809;46.618;10.764;2023-02-28T05:19:42;93194.94;;;1.63;58.64
57248;BME280;55809;46.618;10.764;2023-02-28T05:22:33;93195.72;;;1.63;58.78
57248;BME280;55809;46.618;10.764;2023-02-28T05:25:08;93199.50;;;1.62;59.11
57248;BME280;55809;46.618;10.764;2023-02-28T05:27:40;93202.84;;;1.59;59.67
57248;BME280;55809;46.618;10.764;2023-02-28T05:30:17;93192.50;;;1.58;59.64
57248;BME280;55809;46.618;10.764;2023-02-28T05:32:50;93195.88;;;1.55;59.54
57248;BME280;55809;46.618;10.764;2023-02-28T05:35:23;93160.09;;;1.15;59.48
57248;BME280;55809;46.618;10.764;2023-02-28T05:38:08;93068.34;;;0.57;59.71
57248;BME280;55809;46.618;10.764;2023-02-28T05:41:41;93146.72;;;1.12;59.53
57248;BME280;55809;46.618;10.764;2023-02-28T05:44:25;93187.44;;;1.40;59.34
57248;BME280;55809;46.618;10.764;2023-02-28T05:46:52;93160.88;;;1.16;59.19
57248;BME280;55809;46.618;10.764;2023-02-28T05:49:19;93208.06;;;1.44;59.22
57248;BME280;55809;46.618;10.764;2023-02-28T05:51:46;93175.16;;;1.11;59.11
57248;BME280;55809;46.618;10.764;2023-02-28T05:54:13;93153.34;;;0.93;59.16
57248;BME280;55809;46.618;10.764;2023-02-28T05:56:42;93158.88;;;0.88;59.44
57248;BME280;55809;46.618;10.764;2023-02-28T05:59:11;93163.88;;;0.90;59.33
57248;BME280;55809;46.618;10.764;2023-02-28T06:01:39;93160.44;;;0.89;59.46
57248;BME280;55809;46.618;10.764;2023-02-28T06:04:08;93207.50;;;1.13;59.33
57248;BME280;55809;46.618;10.764;2023-02-28T06:06:36;93173.84;;;0.93;58.83
57248;BME280;55809;46.618;10.764;2023-02-28T06:09:03;93183.16;;;0.99;58.80
57248;BME280;55809;46.618;10.764;2023-02-28T06:11:31;93157.53;;;0.82;58.97
57248;BME280;55809;46.618;10.764;2023-02-28T06:14:00;93149.69;;;0.74;59.07
57248;BME280;55809;46.618;10.764;2023-02-28T06:16:28;93168.31;;;0.86;59.14
57248;BME280;55809;46.618;10.764;2023-02-28T06:18:57;93145.69;;;0.67;58.92
57248;BME280;55809;46.618;10.764;2023-02-28T06:21:24;93174.28;;;0.83;59.12
57248;BME280;55809;46.618;10.764;2023-02-28T06:23:53;93170.03;;;0.82;58.92
57248;BME280;55809;46.618;10.764;2023-02-28T06:26:23;93142.56;;;0.65;59.20
57248;BME280;55809;46.618;10.764;2023-02-28T06:29:01;93180.78;;;0.73;59.20
57248;BME280;55809;46.618;10.764;2023-02-28T06:31:30;93199.59;;;0.68;59.60
57248;BME280;55809;46.618;10.764;2023-02-28T06:33:58;93242.94;;;0.93;59.51
57248;BME280;55809;46.618;10.764;2023-02-28T06:36:27;93251.91;;;1.01;59.59
57248;BME280;55809;46.618;10.764;2023-02-28T06:39:05;93197.59;;;0.65;59.63
57248;BME280;55809;46.618;10.764;2023-02-28T06:41:34;93214.56;;;0.73;59.49
57248;BME280;55809;46.618;10.764;2023-02-28T06:44:17;93259.44;;;1.11;59.40
57248;BME280;55809;46.618;10.764;2023-02-28T06:46:47;93208.59;;;0.88;59.10
57248;BME280;55809;46.618;10.764;2023-02-28T06:49:15;93209.25;;;0.97;59.26
57248;BME280;55809;46.618;10.764;2023-02-28T06:51:46;93159.66;;;0.77;59.02
57248;BME280;55809;46.618;10.764;2023-02-28T06:54:14;93205.19;;;1.12;58.88
57248;BME280;55809;46.618;10.764;2023-02-28T06:56:42;93245.50;;;1.51;58.42
57248;BME280;55809;46.618;10.764;2023-02-28T06:59:16;93207.38;;;1.47;57.47
57248;BME280;55809;46.618;10.764;2023-02-28T07:01:43;93258.59;;;2.21;56.89
57248;BME280;55809;46.618;10.764;2023-02-28T07:04:10;93237.88;;;2.42;56.86
57248;BME280;55809;46.618;10.764;2023-02-28T07:06:38;93259.06;;;2.95;56.01
57248;BME280;55809;46.618;10.764;2023-02-28T07:09:05;93264.59;;;3.18;55.31
57248;BME280;55809;46.618;10.764;2023-02-28T07:11:32;93192.19;;;3.00;54.01
57248;BME280;55809;46.618;10.764;2023-02-28T07:13:59;93222.41;;;3.55;53.44
57248;BME280;55809;46.618;10.764;2023-02-28T07:16:28;93229.72;;;3.74;52.62
57248;BME280;55809;46.618;10.764;2023-02-28T07:18:55;93201.81;;;3.71;52.06
57248;BME280;55809;46.618;10.764;2023-02-28T07:21:22;93190.59;;;3.82;51.66
57248;BME280;55809;46.618;10.764;2023-02-28T07:23:51;93210.38;;;3.96;51.82
57248;BME280;55809;46.618;10.764;2023-02-28T07:26:24;93238.88;;;4.47;50.89
57248;BME280;55809;46.618;10.764;2023-02-28T07:28:51;93154.94;;;4.09;50.70
57248;BME280;55809;46.618;10.764;2023-02-28T07:31:19;93240.63;;;4.78;50.70
57248;BME280;55809;46.618;10.764;2023-02-28T07:33:54;93227.44;;;4.89;50.38
57248;BME280;55809;46.618;10.764;2023-02-28T07:36:36;93198.53;;;4.94;49.53
57248;BME280;55809;46.618;10.764;2023-02-28T07:39:05;93229.44;;;5.38;49.52
57248;BME280;55809;46.618;10.764;2023-02-28T07:41:32;93201.09;;;5.33;48.49
57248;BME280;55809;46.618;10.764;2023-02-28T07:44:03;93229.19;;;5.70;48.25
57248;BME280;55809;46.618;10.764;2023-02-28T07:46:30;93175.88;;;5.61;47.51
57248;BME280;55809;46.618;10.764;2023-02-28T07:49:02;93181.25;;;5.91;46.81
57248;BME280;55809;46.618;10.764;2023-02-28T07:51:30;93237.22;;;6.53;45.72
57248;BME280;55809;46.618;10.764;2023-02-28T07:53:57;93194.97;;;6.43;45.68
57248;BME280;55809;46.618;10.764;2023-02-28T07:56:24;93241.13;;;6.93;44.72
57248;BME280;55809;46.618;10.764;2023-02-28T07:58:52;93241.00;;;7.19;44.19
57248;BME280;55809;46.618;10.764;2023-02-28T08:01:20;93245.13;;;7.47;43.18
57248;BME280;55809;46.618;10.764;2023-02-28T08:03:47;93192.84;;;7.37;42.87
57248;BME280;55809;46.618;10.764;2023-02-28T08:06:20;93239.91;;;7.68;42.44
57248;BME280;55809;46.618;10.764;2023-02-28T08:08:48;93239.59;;;7.77;42.46
57248;BME280;55809;46.618;10.764;2023-02-28T08:11:16;93215.31;;;7.66;41.97
57248;BME280;55809;46.618;10.764;2023-02-28T08:13:43;93199.84;;;7.49;42.47
57248;BME280;55809;46.618;10.764;2023-02-28T08:16:12;93228.44;;;7.75;42.29
57248;BME280;55809;46.618;10.764;2023-02-28T08:18:42;93203.84;;;7.73;42.04
57248;BME280;55809;46.618;10.764;2023-02-28T08:21:10;93168.50;;;7.64;41.84
57248;BME280;55809;46.618;10.764;2023-02-28T08:23:39;93236.47;;;8.27;41.48
57248;BME280;55809;46.618;10.764;2023-02-28T08:26:06;93239.16;;;8.27;41.38
57248;BME280;55809;46.618;10.764;2023-02-28T08:28:33;93229.59;;;8.36;41.05
57248;BME280;55809;46.618;10.764;2023-02-28T08:31:00;93242.41;;;8.57;40.84
57248;BME280;55809;46.618;10.764;2023-02-28T08:33:28;93215.50;;;8.57;40.17
57248;BME280;55809;46.618;10.764;2023-02-28T08:35:55;93211.19;;;8.42;39.08
57248;BME280;55809;46.618;10.764;2023-02-28T08:38:23;93233.59;;;8.67;39.53
57248;BME280;55809;46.618;10.764;2023-02-28T08:40:57;93185.75;;;8.32;40.28
57248;BME280;55809;46.618;10.764;2023-02-28T08:43:25;93189.38;;;8.58;39.88
57248;BME280;55809;46.618;10.764;2023-02-28T08:45:53;93194.78;;;8.68;38.87
57248;BME280;55809;46.618;10.764;2023-02-28T08:48:22;93190.56;;;8.67;38.39
57248;BME280;55809;46.618;10.764;2023-02-28T08:50:55;93230.63;;;8.98;38.59
57248;BME280;55809;46.618;10.764;2023-02-28T08:53:23;93194.84;;;8.83;38.96
57248;BME280;55809;46.618;10.764;2023-02-28T08:55:58;93186.81;;;9.01;38.91
57248;BME280;55809;46.618;10.764;2023-02-28T08:58:25;93232.25;;;9.34;37.61
57248;BME280;55809;46.618;10.764;2023-02-28T09:00:53;93230.34;;;9.53;38.05
57248;BME280;55809;46.618;10.764;2023-02-28T09:03:21;93189.53;;;9.15;37.82
57248;BME280;55809;46.618;10.764;2023-02-28T09:05:55;93175.31;;;9.39;37.71
57248;BME280;55809;46.618;10.764;2023-02-28T09:08:23;93186.09;;;9.61;37.26
57248;BME280;55809;46.618;10.764;2023-02-28T09:10:51;93191.47;;;9.86;37.02
57248;BME280;55809;46.618;10.764;2023-02-28T09:13:21;93191.06;;;10.02;36.44
57248;BME280;55809;46.618;10.764;2023-02-28T09:15:48;93226.13;;;10.05;35.84
57248;BME280;55809;46.618;10.764;2023-02-28T09:18:16;93187.97;;;10.03;36.74
57248;BME280;55809;46.618;10.764;2023-02-28T09:20:46;93203.38;;;10.17;35.83
57248;BME280;55809;46.618;10.764;2023-02-28T09:23:13;93175.63;;;10.20;36.30
57248;BME280;55809;46.618;10.764;2023-02-28T09:25:46;93160.56;;;10.23;35.77
57248;BME280;55809;46.618;10.764;2023-02-28T09:28:14;93223.31;;;10.66;35.89
57248;BME280;55809;46.618;10.764;2023-02-28T09:30:47;93172.50;;;10.47;35.66
57248;BME280;55809;46.618;10.764;2023-02-28T09:33:16;93209.00;;;10.69;35.45
57248;BME280;55809;46.618;10.764;2023-02-28T09:35:46;93169.41;;;10.45;34.64
57248;BME280;55809;46.618;10.764;2023-02-28T09:38:14;93212.88;;;10.72;35.34
57248;BME280;55809;46.618;10.764;2023-02-28T09:40:47;93206.66;;;10.78;35.06
57248;BME280;55809;46.618;10.764;2023-02-28T09:43:15;93150.47;;;10.55;34.54
57248;BME280;55809;46.618;10.764;2023-02-28T09:45:50;93158.53;;;10.66;34.02
57248;BME280;55809;46.618;10.764;2023-02-28T09:48:28;93158.16;;;10.64;34.24
57248;BME280;55809;46.618;10.764;2023-02-28T09:51:02;93151.81;;;10.92;33.62
57248;BME280;55809;46.618;10.764;2023-02-28T09:53:31;93200.75;;;11.05;33.76
57248;BME280;55809;46.618;10.764;2023-02-28T09:56:01;93152.66;;;10.82;32.85
57248;BME280;55809;46.618;10.764;2023-02-28T09:58:34;93123.81;;;10.68;33.77
57248;BME280;55809;46.618;10.764;2023-02-28T10:01:18;93142.91;;;11.02;33.06
57248;BME280;55809;46.618;10.764;2023-02-28T10:03:55;93081.47;;;10.51;32.98
57248;BME280;55809;46.618;10.764;2023-02-28T10:06:28;93166.06;;;11.00;33.19
57248;BME280;55809;46.618;10.764;2023-02-28T10:09:01;93179.88;;;11.16;32.72
57248;BME280;55809;46.618;10.764;2023-02-28T10:11:29;93173.34;;;11.10;32.89
57248;BME280;55809;46.618;10.764;2023-02-28T10:14:01;93137.94;;;10.94;32.76
57248;BME280;55809;46.618;10.764;2023-02-28T10:16:35;93171.88;;;10.95;32.83
57248;BME280;55809;46.618;10.764;2023-02-28T10:19:08;93116.44;;;10.72;33.17
57248;BME280;55809;46.618;10.764;2023-02-28T10:21:43;93148.28;;;11.06;33.08
57248;BME280;55809;46.618;10.764;2023-02-28T10:24:19;93109.72;;;11.06;32.51
57248;BME280;55809;46.618;10.764;2023-02-28T10:26:47;93163.25;;;11.18;32.59
57248;BME280;55809;46.618;10.764;2023-02-28T10:29:15;93152.47;;;11.14;32.59
57248;BME280;55809;46.618;10.764;2023-02-28T10:31:43;93160.91;;;11.23;32.58
57248;BME280;55809;46.618;10.764;2023-02-28T10:34:12;93163.53;;;11.34;32.41
57248;BME280;55809;46.618;10.764;2023-02-28T10:36:40;93162.75;;;11.34;32.09
57248;BME280;55809;46.618;10.764;2023-02-28T10:39:35;93159.22;;;11.44;31.71
57248;BME280;55809;46.618;10.764;2023-02-28T10:42:03;93083.09;;;11.00;31.45
57248;BME280;55809;46.618;10.764;2023-02-28T10:44:31;93162.16;;;11.60;32.04
57248;BME280;55809;46.618;10.764;2023-02-28T10:46:59;93153.81;;;11.44;30.93
57248;BME280;55809;46.618;10.764;2023-02-28T10:49:28;93120.28;;;11.34;30.73
57248;BME280;55809;46.618;10.764;2023-02-28T10:51:57;93122.72;;;11.66;30.88
57248;BME280;55809;46.618;10.764;2023-02-28T10:54:30;93111.50;;;11.68;30.86
57248;BME280;55809;46.618;10.764;2023-02-28T10:57:13;93117.75;;;11.61;30.39
57248;BME280;55809;46.618;10.764;2023-02-28T10:59:44;93110.75;;;11.67;30.54
57248;BME280;55809;46.618;10.764;2023-02-28T11:02:38;93096.19;;;11.54;30.40
57248;BME280;55809;46.618;10.764;2023-02-28T11:05:24;93096.69;;;11.38;30.23
57248;BME280;55809;46.618;10.764;2023-02-28T11:07:54;93095.13;;;11.41;29.95
57248;BME280;55809;46.618;10.764;2023-02-28T11:10:25;93123.94;;;11.62;30.78
57248;BME280;55809;46.618;10.764;2023-02-28T11:12:55;93071.28;;;11.32;31.44
57248;BME280;55809;46.618;10.764;2023-02-28T11:15:25;93069.91;;;11.58;30.63
57248;BME280;55809;46.618;10.764;2023-02-28T11:17:56;93119.75;;;11.99;30.41
57248;BME280;55809;46.618;10.764;2023-02-28T11:20:28;93054.41;;;11.62;30.31
57248;BME280;55809;46.618;10.764;2023-02-28T11:22:57;93050.16;;;11.65;30.15
57248;BME280;55809;46.618;10.764;2023-02-28T11:25:36;93105.44;;;12.02;28.97
57248;BME280;55809;46.618;10.764;2023-02-28T11:28:22;93092.06;;;11.80;30.60
57248;BME280;55809;46.618;10.764;2023-02-28T11:31:05;93108.34;;;11.77;30.74
57248;BME280;55809;46.618;10.764;2023-02-28T11:33:45;93035.22;;;11.49;31.22
57248;BME280;55809;46.618;10.764;2023-02-28T11:36:19;93069.03;;;11.68;30.57
57248;BME280;55809;46.618;10.764;2023-02-28T11:38:59;93048.09;;;11.35;30.63
57248;BME280;55809;46.618;10.764;2023-02-28T11:41:52;93055.09;;;11.28;30.93
57248;BME280;55809;46.618;10.764;2023-02-28T11:44:32;93095.91;;;11.41;31.46
57248;BME280;55809;46.618;10.764;2023-02-28T11:47:09;93035.75;;;10.85;31.71
57248;BME280;55809;46.618;10.764;2023-02-28T11:49:50;93060.13;;;11.26;31.21
57248;BME280;55809;46.618;10.764;2023-02-28T11:52:34;93055.25;;;11.11;30.86
57248;BME280;55809;46.618;10.764;2023-02-28T11:55:14;93029.84;;;11.01;30.97
57248;BME280;55809;46.618;10.764;2023-02-28T11:57:59;93076.09;;;11.10;30.78
57248;BME280;55809;46.618;10.764;2023-02-28T12:00:40;93078.56;;;10.87;31.22
57248;BME280;55809;46.618;10.764;2023-02-28T12:03:18;93048.66;;;10.63;31.42
57248;BME280;55809;46.618;10.764;2023-02-28T12:05:57;93070.19;;;10.70;31.47
57248;BME280;55809;46.618;10.764;2023-02-28T12:08:43;92991.44;;;10.27;31.70
57248;BME280;55809;46.618;10.764;2023-02-28T12:11:19;93074.38;;;10.78;31.46
57248;BME280;55809;46.618;10.764;2023-02-28T12:14:05;93072.47;;;10.75;31.91
57248;BME280;55809;46.618;10.764;2023-02-28T12:17:06;93046.00;;;10.49;31.73
57248;BME280;55809;46.618;10.764;2023-02-28T12:19:48;93065.44;;;10.89;31.46
57248;BME280;55809;46.618;10.764;2023-02-28T12:22:32;93055.34;;;11.00;32.40
57248;BME280;55809;46.618;10.764;2023-02-28T12:25:22;93055.28;;;11.07;31.89
57248;BME280;55809;46.618;10.764;2023-02-28T12:27:52;93057.66;;;10.98;31.52
57248;BME280;55809;46.618;10.764;2023-02-28T12:30:30;93034.63;;;10.83;32.08
57248;BME280;55809;46.618;10.764;2023-02-28T12:33:06;92990.59;;;10.37;32.40
57248;BME280;55809;46.618;10.764;2023-02-28T12:35:38;93044.81;;;10.57;32.61
57248;BME280;55809;46.618;10.764;2023-02-28T12:38:27;93000.13;;;10.49;32.81
57248;BME280;55809;46.618;10.764;2023-02-28T12:41:00;93010.47;;;10.61;32.50
57248;BME280;55809;46.618;10.764;2023-02-28T12:43:33;93004.34;;;10.57;32.25
57248;BME280;55809;46.618;10.764;2023-02-28T12:46:09;92965.53;;;10.40;32.39
57248;BME280;55809;46.618;10.764;2023-02-28T12:48:41;92994.69;;;10.60;32.04
57248;BME280;55809;46.618;10.764;2023-02-28T12:51:10;93014.97;;;10.78;32.19
57248;BME280;55809;46.618;10.764;2023-02-28T12:53:52;92950.06;;;10.44;32.79
57248;BME280;55809;46.618;10.764;2023-02-28T12:56:30;93008.19;;;10.56;32.72
57248;BME280;55809;46.618;10.764;2023-02-28T12:59:04;92951.03;;;10.09;32.87
57248;BME280;55809;46.618;10.764;2023-02-28T13:04:52;93000.63;;;10.29;33.19
57248;BME280;55809;46.618;10.764;2023-02-28T13:10:38;92985.75;;;10.00;34.22
57248;BME280;55809;46.618;10.764;2023-02-28T13:13:14;92939.78;;;9.48;33.73
57248;BME280;55809;46.618;10.764;2023-02-28T13:15:57;92969.38;;;9.58;34.07
57248;BME280;55809;46.618;10.764;2023-02-28T13:18:29;92983.63;;;9.52;33.84
57248;BME280;55809;46.618;10.764;2023-02-28T13:20:57;92978.28;;;9.37;34.18
57248;BME280;55809;46.618;10.764;2023-02-28T13:23:57;92936.81;;;9.10;34.04
57248;BME280;55809;46.618;10.764;2023-02-28T13:29:34;92966.78;;;9.23;34.19
57248;BME280;55809;46.618;10.764;2023-02-28T13:32:32;92929.56;;;8.82;34.09
57248;BME280;55809;46.618;10.764;2023-02-28T13:41:46;92959.16;;;8.82;34.82
57248;BME280;55809;46.618;10.764;2023-02-28T13:44:15;92960.69;;;8.90;35.49
57248;BME280;55809;46.618;10.764;2023-02-28T13:49:50;92954.13;;;9.02;34.58
57248;BME280;55809;46.618;10.764;2023-02-28T13:52:20;92954.53;;;8.89;34.93
57248;BME280;55809;46.618;10.764;2023-02-28T13:54:56;92942.63;;;8.83;35.53
57248;BME280;55809;46.618;10.764;2023-02-28T13:57:35;92949.16;;;8.82;34.96
57248;BME280;55809;46.618;10.764;2023-02-28T14:00:20;92883.84;;;8.42;35.41
57248;BME280;55809;46.618;10.764;2023-02-28T14:06:08;92924.94;;;8.72;35.66
57248;BME280;55809;46.618;10.764;2023-02-28T14:08:37;92892.28;;;8.52;34.20
57248;BME280;55809;46.618;10.764;2023-02-28T14:11:22;92894.97;;;8.41;35.08
57248;BME280;55809;46.618;10.764;2023-02-28T14:13:50;92928.78;;;8.74;35.43
57248;BME280;55809;46.618;10.764;2023-02-28T14:16:23;92891.53;;;8.44;34.79
57248;BME280;55809;46.618;10.764;2023-02-28T14:18:56;92930.31;;;8.72;34.90
57248;BME280;55809;46.618;10.764;2023-02-28T14:21:28;92858.47;;;8.18;35.09
57248;BME280;55809;46.618;10.764;2023-02-28T14:24:09;92892.28;;;8.41;34.58
57248;BME280;55809;46.618;10.764;2023-02-28T14:26:57;92905.34;;;8.57;34.84
57248;BME280;55809;46.618;10.764;2023-02-28T14:29:41;92882.69;;;8.36;34.54